• Join FlightAware (Why Join?)
  • Login
  • US Flag 
12:48AM EDT


 

Airport Tracker/Info


-or-


 

Live Flight TrackerFlight Track Log ✈ EJA831 ✈ 20-Jul-2013 ✈ KRKD - KBVY

Flight Track Log - Related Links

Times and Time Zones

All times are in EDT time to prevent confusion due to time zone crossing. See the EJA831 flight status page for this flight to view local times or setup timezone preferences in your user account.

Time Position Orientation Groundspeed Altitude Reporting Facility
EDT Latitude Longitude Course Direction KTS MPH feet Rate Location/Type
08:42AM 43.8300 -69.6194 240° Southwest  Level FlightAware Approximate
08:43AM 43.7928 -69.7091 240° Southwest  Level FlightAware Approximate
08:44AM 43.7555 -69.7987 240° Southwest  Level FlightAware Approximate
08:45AM 43.7181 -69.8883 240° Southwest  Level FlightAware Approximate
08:46AM 43.6806 -69.9777 240° Southwest  Level FlightAware Approximate
08:47AM 43.6431 -70.0669 240° Southwest  Level FlightAware Approximate
08:48AM 43.6055 -70.1561 240° Southwest  Level FlightAware Approximate
08:49AM 43.5679 -70.2452 240° Southwest  Level FlightAware Approximate
08:50AM 43.5301 -70.3341 240° Southwest  Level FlightAware Approximate
08:50AM 43.3167 -70.2667 206° Southwest 296 341 10,000  Level KA90
08:51AM 43.4923 -70.4230 240° Southwest  Level FlightAware Approximate
08:51AM 43.2833 -70.3167 228° Southwest 295 339 10,000  Level KA90
08:52AM 43.4545 -70.5117 240° Southwest  Level FlightAware Approximate
08:52AM 43.2333 -70.4000 231° Southwest 295 339 10,000  Level KA90
08:53AM 43.4164 -70.6002 207° Southwest  Level FlightAware Approximate
08:53AM 43.1667 -70.4667 216° Southwest 296 341 10,000  Level KA90
08:54AM 43.3502 -70.6476 207° Southwest  Level FlightAware Approximate
08:54AM 43.1167 -70.5500 231° Southwest 296 341 10,000  Level KA90
08:55AM 43.2853 -70.6980 216° Southwest  Level FlightAware Approximate
08:55AM 43.0667 -70.6333 231° Southwest 294 338 10,000  Level KA90
08:56AM 43.2202 -70.7477 206° Southwest  Level FlightAware Approximate
08:56AM 43.0167 -70.7000 224° Southwest 251 289 8,700  Level KA90
08:57AM 42.9667 -70.7667 224° Southwest 245 282 7,100 -1,620 Descending KA90
08:58AM 42.9167 -70.8500 231° Southwest 247 284 5,500 -1,620 Descending KA90
08:59AM 42.8667 -70.9167 224° Southwest 243 280 3,900 -1,260 Descending KA90
09:00AM 42.8167 -70.9667 216° Southwest 219 252 3,000 -480 Descending KA90
09:01AM 42.7667 -70.9500 166° South 217 250 3,000 -480 Level KA90
09:02AM 42.7000 -70.9500 180° South 214 246 2,100 -540 Descending KA90
09:03AM 42.6500 -70.9333 166° South 207 238 2,000 -60 Descending KA90
09:04AM 42.6167 -70.8667 124° Southeast 212 244 2,000 -300 Level KA90
09:05AM 42.5833 -70.8333 144° Southeast 148 170 1,500 -540 Descending KA90
09:06AM 42.5667 -70.8500 216° Southwest 104 120 1,000 -600 Descending KA90
09:07AM 42.5667 -70.9000 270° West 109 125 400 -600 Descending KA90
09:09AM 42.5833 -70.9000 270° West  Level FlightAware Approximate
09:16AM 42.5841 -70.9161 270° West  Level Estimated